Map

Track Data

SID SEASON NUMBER BASIN SUBBASIN NAME ISO_TIME NATURE LAT LON WMO_WIND WMO_PRES WMO_AGENCY TRACK_TYPE DIST2LAND LANDFALL IFLAG USA_AGENCY USA_ATCF_ID USA_LAT USA_LON USA_RECORD USA_STATUS USA_WIND USA_PRES USA_SSHS USA_R34_NE USA_R34_SE USA_R34_SW USA_R34_NW USA_R50_NE USA_R50_SE USA_R50_SW USA_R50_NW USA_R64_NE USA_R64_SE USA_R64_SW USA_R64_NW USA_POCI USA_ROCI USA_RMW USA_EYE TOKYO_LAT TOKYO_LON TOKYO_GRADE TOKYO_WIND TOKYO_PRES TOKYO_R50_DIR TOKYO_R50_LONG TOKYO_R50_SHORT TOKYO_R30_DIR TOKYO_R30_LONG TOKYO_R30_SHORT TOKYO_LAND CMA_LAT CMA_LON CMA_CAT CMA_WIND CMA_PRES HKO_LAT HKO_LON HKO_CAT HKO_WIND HKO_PRES NEWDELHI_LAT NEWDELHI_LON NEWDELHI_GRADE NEWDELHI_WIND NEWDELHI_PRES NEWDELHI_CI NEWDELHI_DP NEWDELHI_POCI REUNION_LAT REUNION_LON REUNION_TYPE REUNION_WIND REUNION_PRES REUNION_TNUM REUNION_CI REUNION_RMW REUNION_R34_NE REUNION_R34_SE REUNION_R34_SW REUNION_R34_NW REUNION_R50_NE REUNION_R50_SE REUNION_R50_SW REUNION_R50_NW REUNION_R64_NE REUNION_R64_SE REUNION_R64_SW REUNION_R64_NW BOM_LAT BOM_LON BOM_TYPE BOM_WIND BOM_PRES BOM_TNUM BOM_CI BOM_RMW BOM_R34_NE BOM_R34_SE BOM_R34_SW BOM_R34_NW BOM_R50_NE BOM_R50_SE BOM_R50_SW BOM_R50_NW BOM_R64_NE BOM_R64_SE BOM_R64_SW BOM_R64_NW BOM_ROCI BOM_POCI BOM_EYE BOM_POS_METHOD BOM_PRES_METHOD NADI_LAT NADI_LON NADI_CAT NADI_WIND NADI_PRES WELLINGTON_LAT WELLINGTON_LON WELLINGTON_WIND WELLINGTON_PRES DS824_LAT DS824_LON DS824_STAGE DS824_WIND DS824_PRES TD9636_LAT TD9636_LON TD9636_STAGE TD9636_WIND TD9636_PRES TD9635_LAT TD9635_LON TD9635_WIND TD9635_PRES TD9635_ROCI NEUMANN_LAT NEUMANN_LON NEUMANN_CLASS NEUMANN_WIND NEUMANN_PRES MLC_LAT MLC_LON MLC_CLASS MLC_WIND MLC_PRES USA_GUST BOM_GUST BOM_GUST_PER REUNION_GUST REUNION_GUST_PER USA_SEAHGT USA_SEARAD_NE USA_SEARAD_SE USA_SEARAD_SW USA_SEARAD_NW STORM_SPEED STORM_DIR
1889244N12305 1889 17 NA NA NOT_NAMED 1889-09-01 00:00:00 TS 11.9000 -55.0000 35 hurdat_atl main 618 611 O_____________ hurdat_atl AL041889 11.9000 -55.0000 TS 35 0 9 304
1889244N12305 1889 17 NA NA NOT_NAMED 1889-09-01 03:00:00 TS 12.1427 -55.3673 main 605 605 P_____________ AL041889 12.1427 -55.3673 TS 37 0 9 306
1889244N12305 1889 17 NA NA NOT_NAMED 1889-09-01 06:00:00 TS 12.4000 -55.7000 40 hurdat_atl main 608 589 O_____________ hurdat_atl AL041889 12.4000 -55.7000 TS 40 0 8 312
1889244N12305 1889 17 NA NA NOT_NAMED 1889-09-01 09:00:00 TS 12.6849 -55.9852 main 589 583 P_____________ AL041889 12.6849 -55.9852 TS 42 0 6 318
1889244N12305 1889 17 NA NA NOT_NAMED 1889-09-01 12:00:00 TS 12.8778 -56.1444 45 hurdat_atl main 587 558 O____________O hurdat_atl AL041889 13.0000 -56.3000 TS 45 0 11.9000 -54.9000 TS 35 7 313
1889244N12305 1889 17 NA NA NOT_NAMED 1889-09-01 15:00:00 TS 13.1340 -56.4760 main 558 538 P____________P AL041889 13.3425 -56.7200 TS 47 0 12.3003 -55.4997 TS 37 9 307
1889244N12305 1889 17 NA NA NOT_NAMED 1889-09-01 18:00:00 TS 13.4273 -56.9000 50 hurdat_atl main 538 524 O____________O hurdat_atl AL041889 13.7000 -57.2000 TS 50 0 12.7000 -56.1000 TS 40 10 305
1889244N12305 1889 17 NA NA NOT_NAMED 1889-09-01 21:00:00 TS 13.7332 -57.3568 main 515 507 P____________P AL041889 14.0499 -57.6852 TS 52 0 13.0999 -56.7002 TS 42 12 305
1889244N12305 1889 17 NA NA NOT_NAMED 1889-09-02 00:00:00 TS 14.1000 -57.9000 55 hurdat_atl main 508 498 O____________O hurdat_atl AL041889 14.4000 -58.2000 TS 55 0 13.5000 -57.3000 TS 45 13 304
1889244N12305 1889 17 NA NA NOT_NAMED 1889-09-02 03:00:00 TS 14.4691 -58.4668 main 504 498 P____________P AL041889 14.7575 -58.7500 TS 57 0 13.8924 -57.9003 TS 45 13 304
1889244N12305 1889 17 NA NA NOT_NAMED 1889-09-02 06:00:00 TS 14.8333 -59.0333 60 hurdat_atl main 507 507 O____________O hurdat_atl AL041889 15.1000 -59.3000 TS 60 0 14.3000 -58.5000 TS 45 13 304
1889244N12305 1889 17 NA NA NOT_NAMED 1889-09-02 09:00:00 TS 15.1982 -59.5768 main 526 526 P____________P AL041889 15.4223 -59.8076 TS 62 0 14.7500 -59.1150 TS 45 12 304
1889244N12305 1889 17 NA CS NOT_NAMED 1889-09-02 12:00:00 TS 15.5333 -60.1000 65 hurdat_atl main 546 546 O____________O hurdat_atl AL041889 15.7000 -60.3000 HU 65 1 15.2000 -59.7000 TS 45 12 301
1889244N12305 1889 17 NA CS NOT_NAMED 1889-09-02 15:00:00 TS 15.7924 -60.6079 main 572 537 P____________P AL041889 15.8849 -60.8004 HU 67 1 15.6073 -60.2228 TS 47 11 299
1889244N12305 1889 17 NA CS NOT_NAMED 1889-09-02 18:00:00 TS 16.0667 -61.1000 70 hurdat_atl main 532 470 O____________O hurdat_atl AL041889 16.1000 -61.3000 HU 70 1 16.0000 -60.7000 TS 50 12 306
1889244N12305 1889 17 NA CS NOT_NAMED 1889-09-02 21:00:00 TS 16.4690 -61.5832 main 465 412 P____________P AL041889 16.4924 -61.8073 HU 72 1 16.4222 -61.1352 TS 55 12 311
1889244N12305 1889 17 NA CS NOT_NAMED 1889-09-03 00:00:00 TS 16.8667 -62.0667 75 hurdat_atl main 398 350 O____________O hurdat_atl AL041889 16.9000 -62.3000 HU 75 1 16.8000 -61.6000 TS 60 12 305
1889244N12305 1889 17 NA CS NOT_NAMED 1889-09-03 03:00:00 TS 17.1316 -62.5670 main 340 289 P____________P AL041889 17.1649 -62.7653 HU 77 1 17.0649 -62.1704 TS 65 11 298
1889244N12305 1889 17 NA CS NOT_NAMED 1889-09-03 06:00:00 TS 17.3667 -63.0667 80 hurdat_atl main 279 232 O____________O hurdat_atl AL041889 17.4000 -63.2000 HU 80 1 17.3000 -62.8000 HU 70 11 299
1889244N12305 1889 17 NA CS NOT_NAMED 1889-09-03 09:00:00 TS 17.6565 -63.5452 main 229 172 P____________P AL041889 17.6848 -63.5928 HU 85 2 17.5999 -63.4500 HU 80 11 303
1889244N12305 1889 17 NA CS NOT_NAMED 1889-09-03 12:00:00 TS 17.9667 -64.0333 90 hurdat_atl main 170 116 O____________O hurdat_atl AL041889 18.0000 -64.0000 HU 90 2 17.9000 -64.1000 HU 90 985 12 302
1889244N12305 1889 17 NA CS NOT_NAMED 1889-09-03 15:00:00 TS 18.2733 -64.5718 main 105 57 P____________P AL041889 18.3425 -64.4851 HU 90 2 18.1350 -64.7453 HU 90 983 12 302
1889244N12305 1889 17 NA CS NOT_NAMED 1889-09-03 18:00:00 TS 18.6000 -65.1000 90 hurdat_atl main 57 46 O____________O hurdat_atl AL041889 18.7000 -65.0000 HU 90 2 18.4000 -65.3000 HU 90 982 12 307
1889244N12305 1889 17 NA NA NOT_NAMED 1889-09-03 21:00:00 TS 18.9765 -65.5700 main 67 67 P____________P AL041889 19.0650 -65.5150 HU 90 2 18.7996 -65.6801 HU 90 11 311
1889244N12305 1889 17 NA NA NOT_NAMED 1889-09-04 00:00:00 TS 19.3333 -66.0000 90 hurdat_atl main 100 100 O____________O hurdat_atl AL041889 19.4000 -66.0000 HU 90 2 19.2000 -66.0000 HU 90 10 308
1889244N12305 1889 17 NA NA NOT_NAMED 1889-09-04 03:00:00 TS 19.5982 -66.4153 main 134 134 P____________P AL041889 19.6573 -66.4228 HU 90 2 19.4800 -66.4001 HU 90 9 304
1889244N12305 1889 17 NA NA NOT_NAMED 1889-09-04 06:00:00 TS 19.8333 -66.8000 90 hurdat_atl main 156 156 O____________O hurdat_atl AL041889 19.9000 -66.8000 HU 90 2 19.7000 -66.8000 HU 90 9 304
1889244N12305 1889 17 NA NA NOT_NAMED 1889-09-04 09:00:00 TS 20.0849 -67.1701 main 190 190 P____________P AL041889 20.1924 -67.1651 HU 90 2 19.8700 -67.1803 HU 92 8 309
1889244N12305 1889 17 NA NA NOT_NAMED 1889-09-04 12:00:00 TS 20.3667 -67.5000 90 hurdat_atl main 212 207 O____________O hurdat_atl AL041889 20.5000 -67.5000 HU 90 2 20.1000 -67.5000 HU 95 9 317
1889244N12305 1889 17 NA NA NOT_NAMED 1889-09-04 15:00:00 TS 20.7066 -67.7892 main 221 221 P____________P AL041889 20.8000 -67.8226 HU 90 2 20.5199 -67.7226 HU 95 9 325
1889244N12305 1889 17 NA NA NOT_NAMED 1889-09-04 18:00:00 TS 21.0667 -68.0333 90 hurdat_atl main 242 237 O____________O hurdat_atl AL041889 21.1000 -68.1000 HU 90 2 21.0000 -67.9000 HU 95 8 328
1889244N12305 1889 17 NA NA NOT_NAMED 1889-09-04 21:00:00 TS 21.3950 -68.2535 main 256 256 P____________P AL041889 21.3925 -68.3301 HU 90 2 21.4000 -68.1002 HU 97 8 331
1889244N12305 1889 17 NA NA NOT_NAMED 1889-09-05 00:00:00 TS 21.7333 -68.4333 90 hurdat_atl main 284 284 O____________O hurdat_atl AL041889 21.7000 -68.5000 HU 90 2 21.8000 -68.3000 MH 100 8 336
1889244N12305 1889 17 NA NA NOT_NAMED 1889-09-05 03:00:00 TS 22.1016 -68.5892 main 315 315 P____________P AL041889 22.0275 -68.6300 HU 90 2 22.2500 -68.5075 MH 102 8 342
1889244N12305 1889 17 NA NA NOT_NAMED 1889-09-05 06:00:00 TS 22.5000 -68.7000 90 hurdat_atl main 351 351 O____________O hurdat_atl AL041889 22.4000 -68.7000 HU 90 2 22.7000 -68.7000 MH 105 8 348
1889244N12305 1889 17 NA NA NOT_NAMED 1889-09-05 09:00:00 TS 22.8983 -68.7750 main 389 389 P____________P AL041889 22.7975 -68.7299 HU 90 2 23.1000 -68.8651 MH 107 9 354
1889244N12305 1889 17 NA NA NOT_NAMED 1889-09-05 12:00:00 TS 23.3667 -68.8000 90 hurdat_atl main 442 442 O____________O hurdat_atl AL041889 23.3000 -68.7000 HU 90 2 23.5000 -69.0000 MH 110 943 11 359
1889244N12305 1889 17 NA NA NOT_NAMED 1889-09-05 15:00:00 TS 23.9708 -68.8015 main 504 504 P____________P AL041889 23.9849 -68.6448 HU 90 2 23.9425 -69.1150 MH 110 12 3
1889244N12305 1889 17 NA NA NOT_NAMED 1889-09-05 18:00:00 TS 24.6000 -68.7333 90 hurdat_atl main 571 571 O____________O hurdat_atl AL041889 24.7000 -68.5000 HU 90 2 24.4000 -69.2000 MH 110 12 9
1889244N12305 1889 17 NA NA NOT_NAMED 1889-09-05 21:00:00 TS 25.1266 -68.5922 main 626 626 P____________P AL041889 25.2648 -68.2595 HU 90 2 24.8500 -69.2576 MH 110 11 18
1889244N12305 1889 17 NA NA NOT_NAMED 1889-09-06 00:00:00 TS 25.6333 -68.3667 90 hurdat_atl main 679 679 O____________O hurdat_atl AL041889 25.8000 -67.9000 HU 90 2 25.3000 -69.3000 MH 110 12 25
1889244N12305 1889 17 NA NA NOT_NAMED 1889-09-06 03:00:00 TS 26.1761 -68.0503 main 748 748 P____________P AL041889 26.3854 -67.4004 HU 90 2 25.7575 -69.3500 MH 110 12 27
1889244N12305 1889 17 NA NA NOT_NAMED 1889-09-06 06:00:00 TS 26.7333 -67.7333 90 hurdat_atl main 816 816 O____________O hurdat_atl AL041889 27.0000 -66.9000 HU 90 2 26.2000 -69.4000 MH 110 12 23
1889244N12305 1889 17 NA NA NOT_NAMED 1889-09-06 09:00:00 TS 27.3149 -67.4952 main 880 880 P____________P AL041889 27.6724 -66.5251 HU 90 2 26.6000 -69.4352 MH 107 12 16
1889244N12305 1889 17 NA NA NOT_NAMED 1889-09-06 12:00:00 TS 27.8667 -67.3667 90 hurdat_atl main 938 938 O____________O hurdat_atl AL041889 28.3000 -66.3000 HU 90 2 27.0000 -69.5000 MH 105 10 6
1889244N12305 1889 17 NA NA NOT_NAMED 1889-09-06 15:00:00 TS 28.3441 -67.3787 main 973 973 P____________P AL041889 28.7949 -66.2468 HU 90 2 27.4425 -69.6423 MH 105 9 355
1889244N12305 1889 17 NA NA NOT_NAMED 1889-09-06 18:00:00 TS 28.7667 -67.4667 90 hurdat_atl main 1013 1013 O____________O hurdat_atl AL041889 29.2000 -66.3000 HU 90 2 27.9000 -69.8000 MH 105 8 351
1889244N12305 1889 17 NA NA NOT_NAMED 1889-09-06 21:00:00 TS 29.1450 -67.5284 main 1041 1014 P____________P AL041889 29.5425 -66.3425 HU 90 2 28.3500 -69.9003 MH 102 8 351
1889244N12305 1889 17 NA NA NOT_NAMED 1889-09-07 00:00:00 TS 29.5333 -67.6000 90 hurdat_atl main 1014 972 O____________O hurdat_atl AL041889 29.9000 -66.4000 HU 90 2 28.8000 -70.0000 MH 100 9 352
1889244N12305 1889 17 NA NA NOT_NAMED 1889-09-07 03:00:00 TS 29.9991 -67.6637 main 972 927 P____________P AL041889 30.3699 -66.4205 HU 90 2 29.2575 -70.1499 MH 100 10 352
1889244N12305 1889 17 NA NA NOT_NAMED 1889-09-07 06:00:00 TS 30.5000 -67.7667 90 hurdat_atl main 927 883 O____________O hurdat_atl AL041889 30.9000 -66.5000 HU 90 2 29.7000 -70.3000 MH 100 11 346
1889244N12305 1889 17 NA NA NOT_NAMED 1889-09-07 09:00:00 TS 31.0201 -67.9538 main 876 826 P____________P AL041889 31.4801 -66.7268 HU 90 2 30.1000 -70.4077 MH 100 11 341
1889244N12305 1889 17 NA NA NOT_NAMED 1889-09-07 12:00:00 TS 31.5000 -68.1667 90 hurdat_atl main 826 792 O____________O hurdat_atl AL041889 32.0000 -67.0000 HU 90 2 30.5000 -70.5000 MH 100 9 339
1889244N12305 1889 17 NA NA NOT_NAMED 1889-09-07 15:00:00 TS 31.8800 -68.3461 main 792 758 P____________P AL041889 32.3449 -67.2154 HU 90 2 30.9500 -70.6074 MH 100 8 338
1889244N12305 1889 17 NA NA NOT_NAMED 1889-09-07 18:00:00 TS 32.2000 -68.5000 90 hurdat_atl main 758 732 O____________O hurdat_atl AL041889 32.6000 -67.4000 HU 90 2 31.4000 -70.7000 MH 100 7 339
1889244N12305 1889 17 NA NA NOT_NAMED 1889-09-07 21:00:00 TS 32.5100 -68.6243 main 732 707 P____________P AL041889 32.8649 -67.5577 HU 90 2 31.8000 -70.7577 MH 97 6 342
1889244N12305 1889 17 NA NA NOT_NAMED 1889-09-08 00:00:00 TS 32.8000 -68.7333 90 hurdat_atl main 707 682 O____________O hurdat_atl AL041889 33.1000 -67.7000 HU 90 2 32.2000 -70.8000 HU 95 6 342
1889244N12305 1889 17 NA NA NOT_NAMED 1889-09-08 03:00:00 TS 33.0833 -68.8501 main 674 650 P____________P AL041889 33.3000 -67.8501 HU 90 2 32.6500 -70.8500 HU 95 6 341
1889244N12305 1889 17 NA NA NOT_NAMED 1889-09-08 06:00:00 TS 33.3667 -68.9667 90 hurdat_atl main 650 628 O____________O hurdat_atl AL041889 33.5000 -68.0000 HU 90 2 33.1000 -70.9000 HU 95 6 342
1889244N12305 1889 17 NA NA NOT_NAMED 1889-09-08 09:00:00 TS 33.6767 -69.0883 main 628 607 P____________P AL041889 33.7575 -68.1574 HU 90 2 33.5150 -70.9500 HU 92 6 342
1889244N12305 1889 17 NA NA NOT_NAMED 1889-09-08 12:00:00 TS 33.9667 -69.2000 90 hurdat_atl main 607 590 O____________O hurdat_atl AL041889 34.0000 -68.3000 HU 90 2 33.9000 -71.0000 HU 90 5 342
1889244N12305 1889 17 NA NA NOT_NAMED 1889-09-08 15:00:00 TS 34.1908 -69.2835 main 590 575 P____________P AL041889 34.1574 -68.4002 HU 90 2 34.2575 -71.0501 HU 90 5 342
1889244N12305 1889 17 NA NA NOT_NAMED 1889-09-08 18:00:00 TS 34.4000 -69.3667 90 hurdat_atl main 575 560 O____________O hurdat_atl AL041889 34.3000 -68.5000 HU 90 2 34.6000 -71.1000 HU 90 5 341
1889244N12305 1889 17 NA NA NOT_NAMED 1889-09-08 21:00:00 TS 34.6450 -69.4734 main 560 543 P____________P AL041889 34.4925 -68.6350 HU 90 2 34.9500 -71.1500 HU 90 5 339
1889244N12305 1889 17 NA NA NOT_NAMED 1889-09-09 00:00:00 TS 34.9000 -69.6000 90 hurdat_atl main 543 529 O____________O hurdat_atl AL041889 34.7000 -68.8000 HU 90 2 35.3000 -71.2000 HU 90 6 336
1889244N12305 1889 17 NA NA NOT_NAMED 1889-09-09 03:00:00 TS 35.1500 -69.7525 main 519 507 P____________P AL041889 34.9000 -69.0000 HU 90 2 35.6500 -71.2574 HU 90 6 334
1889244N12305 1889 17 NA NA NOT_NAMED 1889-09-09 06:00:00 TS 35.4000 -69.9000 90 hurdat_atl main 507 495 O____________O hurdat_atl AL041889 35.1000 -69.2000 HU 90 2 36.0000 -71.3000 HU 90 6 338
1889244N12305 1889 17 NA NA NOT_NAMED 1889-09-09 09:00:00 TS 35.6600 -70.0027 main 495 485 P____________P AL041889 35.2924 -69.3577 HU 90 2 36.3950 -71.2927 HU 90 5 342
1889244N12305 1889 17 NA NA NOT_NAMED 1889-09-09 12:00:00 TS 35.9000 -70.1000 90 hurdat_atl main 485 476 O____________O hurdat_atl AL041889 35.5000 -69.5000 HU 90 2 36.7000 -71.3000 HU 90 5 337
1889244N12305 1889 17 NA NA NOT_NAMED 1889-09-09 15:00:00 TS 36.1008 -70.2333 main 477 459 P____________P AL041889 35.7575 -69.6574 HU 90 2 36.7875 -71.3851 HU 90 4 329
1889244N12305 1889 17 NA NA NOT_NAMED 1889-09-09 18:00:00 TS 36.2667 -70.3667 90 hurdat_atl main 460 453 O____________O hurdat_atl AL041889 36.0000 -69.8000 HU 90 2 36.8000 -71.5000 HU 90 4 328
1889244N12305 1889 17 NA NA NOT_NAMED 1889-09-09 21:00:00 TS 36.4100 -70.4718 main 453 444 P____________P AL041889 36.1650 -69.9077 HU 87 2 36.9000 -71.6000 HU 87 3 329
1889244N12305 1889 17 NA NA NOT_NAMED 1889-09-10 00:00:00 TS 36.5333 -70.5667 85 hurdat_atl main 444 431 O____________O hurdat_atl AL041889 36.3000 -70.0000 HU 85 2 37.0000 -71.7000 HU 85 3 326
1889244N12305 1889 17 NA NA NOT_NAMED 1889-09-10 03:00:00 TS 36.6475 -70.6692 main 431 413 P____________P AL041889 36.4425 -70.1001 HU 82 1 37.0575 -71.8075 HU 82 3 326
1889244N12305 1889 17 NA NA NOT_NAMED 1889-09-10 06:00:00 TS 36.7667 -70.7667 80 hurdat_atl main 413 408 O____________O hurdat_atl AL041889 36.6000 -70.2000 HU 80 1 37.1000 -71.9000 HU 80 3 333
1889244N12305 1889 17 NA NA NOT_NAMED 1889-09-10 09:00:00 TS 36.9141 -70.8401 main 408 391 P____________P AL041889 36.7925 -70.2926 HU 80 1 37.1574 -71.9350 HU 80 3 337
1889244N12305 1889 17 NA NA NOT_NAMED 1889-09-10 12:00:00 TS 37.0667 -70.9333 80 hurdat_atl main 391 371 O____________O hurdat_atl AL041889 37.0000 -70.4000 HU 80 1 37.2000 -72.0000 HU 80 4 327
1889244N12305 1889 17 NA NA NOT_NAMED 1889-09-10 15:00:00 TS 37.2075 -71.0850 main 371 351 P____________P AL041889 37.2075 -70.5350 HU 77 1 37.2076 -72.1850 HU 77 4 315
1889244N12305 1889 17 NA NA NOT_NAMED 1889-09-10 18:00:00 TS 37.3333 -71.2667 75 hurdat_atl main 351 339 O____________O hurdat_atl AL041889 37.4000 -70.7000 HU 75 1 37.2000 -72.4000 HU 75 4 309
1889244N12305 1889 17 NA NA NOT_NAMED 1889-09-10 21:00:00 TS 37.4383 -71.4401 main 339 318 P____________P AL041889 37.5575 -70.8851 HU 72 1 37.1999 -72.5500 HU 72 4 304
1889244N12305 1889 17 NA NA NOT_NAMED 1889-09-11 00:00:00 TS 37.5333 -71.6333 70 hurdat_atl main 318 298 O____________O hurdat_atl AL041889 37.7000 -71.1000 HU 70 1 37.2000 -72.7000 HU 70 4 300
1889244N12305 1889 17 NA NA NOT_NAMED 1889-09-11 03:00:00 TS 37.6333 -71.8617 main 290 270 P____________P AL041889 37.8500 -71.3426 HU 70 1 37.2000 -72.9000 HU 70 4 298
1889244N12305 1889 17 NA NA NOT_NAMED 1889-09-11 06:00:00 TS 37.7333 -72.1000 70 hurdat_atl main 270 250 O____________O hurdat_atl AL041889 38.0000 -71.6000 HU 70 1 37.2000 -73.1000 HU 70 4 299
1889244N12305 1889 17 NA NA NOT_NAMED 1889-09-11 09:00:00 TS 37.8383 -72.3316 main 250 231 P____________P AL041889 38.1650 -71.8574 HU 67 1 37.1850 -73.2800 HU 67 4 300
1889244N12305 1889 17 NA NA NOT_NAMED 1889-09-11 12:00:00 TS 37.9333 -72.5333 65 hurdat_atl main 231 211 O____________O hurdat_atl AL041889 38.3000 -72.1000 HU 65 1 37.2000 -73.4000 HU 65 3 302
1889244N12305 1889 17 NA NA NOT_NAMED 1889-09-11 15:00:00 TS 38.0099 -72.6793 main 211 198 P____________P AL041889 38.3724 -72.3076 HU 62 0 37.2850 -73.4225 HU 65 2 303
1889244N12305 1889 17 NA NA NOT_NAMED 1889-09-11 18:00:00 TS 38.0667 -72.8000 60 hurdat_atl main 198 191 O____________O hurdat_atl AL041889 38.4000 -72.5000 TS 60 0 37.4000 -73.4000 HU 65 2 299
1889244N12305 1889 17 NA NA NOT_NAMED 1889-09-11 21:00:00 TS 38.1199 -72.9282 main 191 175 P____________P AL041889 38.4299 -72.6923 TS 57 0 37.5000 -73.4000 HU 65 2 288
1889244N12305 1889 17 NA NA NOT_NAMED 1889-09-12 00:00:00 TS 38.1333 -73.0667 55 hurdat_atl main 175 167 O____________O hurdat_atl AL041889 38.4000 -72.9000 TS 55 0 37.6000 -73.4000 HU 65 2 263
1889244N12305 1889 17 NA NA NOT_NAMED 1889-09-12 03:00:00 TS 38.0892 -73.2284 main 167 151 P____________P AL041889 38.2800 -73.1426 TS 50 0 37.7075 -73.4000 HU 65 3 243
1889244N12305 1889 17 NA NA NOT_NAMED 1889-09-12 06:00:00 TS 38.0000 -73.4000 45 hurdat_atl main 151 143 O____________O hurdat_atl AL041889 38.1000 -73.4000 TS 45 0 37.8000 -73.4000 HU 65 3 234
1889244N12305 1889 17 NA NA NOT_NAMED 1889-09-12 09:00:00 TS 37.9058 -73.5539 main 138 134 P____________P AL041889 37.9299 -73.6421 TS 42 0 37.8575 -73.3775 HU 65 3 227
1889244N12305 1889 17 NA NA NOT_NAMED 1889-09-12 12:00:00 TS 37.7800 -73.7000 40 hurdat_atl main 134 124 O____________O hurdat_atl AL041889 37.7000 -73.9000 TS 40 0 37.9000 -73.4000 HU 65 3 225
1889244N12305 1889 17 NA NA NOT_NAMED 1889-09-12 15:00:00 TS 37.6639 -73.8629 main 124 117 P____________P AL041889 37.3777 -74.1908 TS 37 0 37.9501 -73.5350 HU 65 2 241
1889244N12305 1889 17 NA NA NOT_NAMED 1889-09-12 18:00:00 TS 37.6667 -73.9667 35 hurdat_atl main 117 109 O____________O hurdat_atl AL041889 37.0000 -74.5000 TS 35 0 38.0000 -73.7000 HU 65 4 6
1889244N12305 1889 17 NA NA NOT_NAMED 1889-09-12 21:00:00 TS 38.0575 -73.8225 main 115 106 _____________P AL041889 TS -1 38.0575 -73.8225 HU 65 4 7
1889244N12305 1889 17 NA NA NOT_NAMED 1889-09-13 00:00:00 TS 38.1000 -73.9000 main 106 106 _____________O 38.1000 -73.9000 HU 65 1 301
1889244N12305 1889 17 NA NA NOT_NAMED 1889-09-13 03:00:00 TS 38.1075 -73.9225 main 106 106 _____________P 38.1075 -73.9225 HU 62 0 0
1889244N12305 1889 17 NA NA NOT_NAMED 1889-09-13 06:00:00 TS 38.1000 -73.9000 main 106 106 _____________O 38.1000 -73.9000 TS 60 1 79
1889244N12305 1889 17 NA NA NOT_NAMED 1889-09-13 09:00:00 TS 38.1225 -73.8274 main 115 115 _____________P 38.1225 -73.8274 TS 57 1 90
1889244N12305 1889 17 NA NA NOT_NAMED 1889-09-13 12:00:00 TS 38.1000 -73.8000 main 115 109 _____________O 38.1000 -73.8000 TS 55 2 207
1889244N12305 1889 17 NA NA NOT_NAMED 1889-09-13 15:00:00 TS 37.9726 -73.9277 main 109 103 _____________P 37.9726 -73.9277 TS 52 4 218
1889244N12305 1889 17 NA NA NOT_NAMED 1889-09-13 18:00:00 TS 37.8000 -74.1000 main 103 103 _____________O 37.8000 -74.1000 TS 50 4 214
1889244N12305 1889 17 NA NA NOT_NAMED 1889-09-13 21:00:00 TS 37.6499 -74.1999 main 110 103 _____________P 37.6499 -74.1999 TS 47 3 207
1889244N12305 1889 17 NA NA NOT_NAMED 1889-09-14 00:00:00 TS 37.5000 -74.3000 main 110 106 _____________O 37.5000 -74.3000 TS 45 4 213
1889244N12305 1889 17 NA NA NOT_NAMED 1889-09-14 03:00:00 TS 37.3425 -74.4501 main 104 102 _____________P 37.3425 -74.4501 TS 45 4 218
1889244N12305 1889 17 NA NA NOT_NAMED 1889-09-14 06:00:00 TS 37.2000 -74.6000 main 102 102 _____________O 37.2000 -74.6000 TS 45 3 213
1889244N12305 1889 17 NA NA NOT_NAMED 1889-09-14 09:00:00 TS 37.0996 -74.6471 main 106 97 _____________P 37.0996 -74.6471 TS 42 3 219
1889244N12305 1889 17 NA NA NOT_NAMED 1889-09-14 12:00:00 TS 37.0000 -74.8000 main 97 65 _____________O 37.0000 -74.8000 TS 40 5 242
1889244N12305 1889 17 NA NA NOT_NAMED 1889-09-14 15:00:00 TS 36.8503 -75.2404 main 65 14 _____________P 36.8503 -75.2404 TS 37 9 249
1889244N12305 1889 17 NA NA NOT_NAMED 1889-09-14 18:00:00 TS 36.7000 -75.8000 main 14 0 _____________O 36.7000 -75.8000 TS 35 9 253
1889244N12305 1889 17 NA NA NOT_NAMED 1889-09-14 21:00:00 TS 36.5876 -76.3199 main 0 0 _____________P 36.5876 -76.3199 TS 32 8 256
1889244N12305 1889 17 NA NA NOT_NAMED 1889-09-15 00:00:00 TS 36.5000 -76.8000 main 0 _____________O 36.5000 -76.8000 TD 30 8 257

About IBTrACS Database

This database is a web-friendly format of International Best Track Archive for Climate Stewardship (IBTrACS), a global best track data archive curated by NOAA dating back to 1842.

Updated: 2021-12-03